Time;durP1;ratioP1;P1;durP2;ratioP2;P2;SDS_P1;SDS_P2;PMS_P1;PMS_P2;Temp;Humidity;BMP_temperature;BMP_pressure;BME280_temperature;BME280_humidity;BME280_pressure;Samples;Min_cycle;Max_cycle;Signal;HPM_P1;HPM_P2
2021/08/26 00:01:14;;;;;;;0.60;0.50;;;24.10;54.80;;;;;;6243138;28;20029;-69
2021/08/26 00:07:34;;;;;;;0.57;0.50;;;24.00;54.60;;;;;;6243156;28;20033;-69
2021/08/26 00:10:35;;;;;;;0.63;0.50;;;24.00;54.70;;;;;;6242768;28;21000;-68
2021/08/26 00:13:36;;;;;;;0.75;0.60;;;24.00;54.70;;;;;;6239708;28;20092;-68
2021/08/26 00:16:55;;;;;;;0.52;0.52;;;24.00;54.70;;;;;;6219946;28;20464;-69
2021/08/26 00:19:56;;;;;;;0.57;0.50;;;24.10;54.70;;;;;;6241377;28;20068;-68
2021/08/26 00:22:56;;;;;;;0.70;0.40;;;24.10;54.70;;;;;;6242643;28;20053;-69
2021/08/26 00:25:57;;;;;;;0.40;0.40;;;24.00;54.80;;;;;;6243035;28;20025;-69
2021/08/26 00:29:02;;;;;;;0.40;0.40;;;24.00;54.70;;;;;;6242985;28;20413;-69
2021/08/26 00:32:02;;;;;;;0.65;0.52;;;24.10;54.90;;;;;;6242441;28;20029;-69
2021/08/26 00:35:03;;;;;;;0.47;0.47;;;24.00;54.70;;;;;;6243286;28;20075;-69
2021/08/26 00:38:04;;;;;;;0.90;0.50;;;24.10;54.80;;;;;;6241892;28;20083;-68
2021/08/26 00:41:04;;;;;;;0.70;0.40;;;24.00;54.70;;;;;;6242173;28;20021;-69
2021/08/26 00:44:05;;;;;;;0.40;0.40;;;24.00;54.70;;;;;;6240867;28;20026;-69
2021/08/26 00:47:08;;;;;;;0.30;0.30;;;24.10;55.50;;;;;;6241969;28;20028;-68
2021/08/26 00:50:09;;;;;;;0.57;0.45;;;24.00;54.80;;;;;;6241939;28;20667;-69
2021/08/26 00:53:10;;;;;;;0.52;0.50;;;24.00;54.70;;;;;;6242162;28;20029;-69
2021/08/26 00:56:14;;;;;;;0.40;0.40;;;24.10;54.80;;;;;;6241938;28;20096;-68
2021/08/26 00:59:15;;;;;;;0.40;0.37;;;24.10;55.10;;;;;;6241743;28;20108;-68
2021/08/26 01:02:23;;;;;;;0.80;0.40;;;24.00;54.70;;;;;;6240169;28;20295;-68
2021/08/26 01:05:37;;;;;;;0.35;0.35;;;24.00;54.80;;;;;;6236032;28;20068;-68
2021/08/26 01:08:51;;;;;;;1.15;0.52;;;24.10;54.80;;;;;;6241828;28;20071;-69
2021/08/26 01:11:53;;;;;;;1.05;0.50;;;24.00;54.80;;;;;;6241096;28;20490;-68
2021/08/26 01:14:55;;;;;;;0.50;0.50;;;24.10;55.60;;;;;;6227402;28;20488;-68
2021/08/26 01:17:56;;;;;;;0.70;0.30;;;24.10;54.90;;;;;;6217594;28;20022;-69
2021/08/26 01:20:57;;;;;;;1.02;0.57;;;24.10;54.90;;;;;;6241203;28;20430;-68
2021/08/26 01:24:06;;;;;;;1.27;0.50;;;24.00;54.80;;;;;;6241063;28;20029;-69
2021/08/26 01:27:07;;;;;;;0.40;0.40;;;24.00;54.80;;;;;;6241020;28;20510;-69
2021/08/26 01:30:09;;;;;;;0.57;0.50;;;24.00;54.80;;;;;;6240849;28;20483;-68
2021/08/26 01:33:10;;;;;;;0.50;0.40;;;24.00;54.80;;;;;;6240804;28;20529;-68
2021/08/26 01:36:11;;;;;;;0.45;0.40;;;24.00;54.80;;;;;;6239269;28;20029;-68
2021/08/26 01:39:13;;;;;;;0.93;0.63;;;24.00;54.90;;;;;;6241060;28;20108;-69
2021/08/26 01:42:14;;;;;;;0.50;0.50;;;24.00;54.80;;;;;;6239331;28;20508;-69
2021/08/26 01:45:15;;;;;;;0.50;0.50;;;24.00;54.70;;;;;;6231153;28;20026;-68
2021/08/26 01:48:17;;;;;;;0.52;0.45;;;24.10;54.80;;;;;;6238452;28;20108;-68
2021/08/26 01:51:17;;;;;;;0.50;0.50;;;24.00;54.80;;;;;;6239154;28;20029;-69
2021/08/26 01:54:18;;;;;;;0.73;0.45;;;24.10;54.80;;;;;;6239379;28;20112;-68
2021/08/26 01:57:20;;;;;;;1.10;0.50;;;24.00;54.80;;;;;;6240749;28;20671;-69
2021/08/26 02:00:20;;;;;;;0.47;0.47;;;24.10;54.80;;;;;;6240059;28;20092;-69
2021/08/26 02:03:21;;;;;;;0.50;0.50;;;24.00;54.80;;;;;;6239176;28;20044;-69
2021/08/26 02:06:22;;;;;;;0.73;0.40;;;24.00;54.70;;;;;;6240794;28;20450;-69
2021/08/26 02:09:22;;;;;;;0.47;0.40;;;24.10;54.80;;;;;;6240329;28;20025;-69
2021/08/26 02:12:23;;;;;;;0.63;0.30;;;24.00;54.80;;;;;;6238828;28;21198;-69
2021/08/26 02:15:24;;;;;;;0.73;0.50;;;24.00;54.80;;;;;;6239080;28;20440;-68
2021/08/26 02:18:24;;;;;;;0.40;0.30;;;24.00;54.80;;;;;;6240861;28;20445;-69
2021/08/26 02:21:28;;;;;;;0.50;0.38;;;24.00;54.80;;;;;;6238850;28;20062;-68
2021/08/26 02:24:29;;;;;;;1.13;0.50;;;24.00;54.80;;;;;;6240455;28;20049;-69
2021/08/26 02:27:29;;;;;;;0.50;0.40;;;24.10;54.80;;;;;;6238919;28;20052;-68
2021/08/26 02:30:30;;;;;;;0.52;0.50;;;24.00;54.70;;;;;;6240916;28;20037;-68
2021/08/26 02:33:30;;;;;;;0.45;0.45;;;24.10;54.80;;;;;;6239917;28;20034;-69
2021/08/26 02:36:31;;;;;;;0.40;0.40;;;24.00;54.80;;;;;;6240502;28;20109;-69
2021/08/26 02:39:31;;;;;;;0.40;0.40;;;24.10;54.80;;;;;;6240284;28;20052;-69
2021/08/26 02:42:32;;;;;;;0.50;0.50;;;24.10;54.80;;;;;;6238497;28;20028;-67
2021/08/26 02:45:33;;;;;;;0.30;0.30;;;24.00;54.70;;;;;;6239812;28;20082;-69
2021/08/26 02:48:33;;;;;;;0.52;0.40;;;24.10;54.90;;;;;;6244265;28;20029;-68
2021/08/26 02:51:34;;;;;;;1.75;0.80;;;24.00;54.80;;;;;;6244639;28;20100;-68
2021/08/26 02:54:35;;;;;;;0.60;0.40;;;24.00;54.80;;;;;;6243507;28;20021;-69
2021/08/26 02:57:35;;;;;;;0.50;0.40;;;24.00;54.80;;;;;;6244745;28;20075;-69
2021/08/26 03:00:36;;;;;;;0.40;0.32;;;24.00;54.80;;;;;;6244599;28;20419;-69
2021/08/26 03:03:36;;;;;;;0.57;0.40;;;24.00;54.80;;;;;;6244642;28;20111;-69
2021/08/26 03:06:37;;;;;;;0.32;0.30;;;24.10;54.90;;;;;;6242922;28;20512;-69
2021/08/26 03:09:37;;;;;;;0.40;0.32;;;24.00;54.90;;;;;;6244439;28;20030;-69
2021/08/26 03:12:38;;;;;;;0.40;0.35;;;24.00;54.80;;;;;;6244168;28;20033;-69
2021/08/26 03:15:39;;;;;;;0.80;0.45;;;24.00;54.80;;;;;;6224903;28;20087;-69
2021/08/26 03:18:40;;;;;;;0.45;0.40;;;24.00;54.80;;;;;;6244480;28;20030;-68
2021/08/26 03:21:40;;;;;;;0.80;0.40;;;24.00;54.90;;;;;;6242233;28;20106;-68
2021/08/26 03:24:41;;;;;;;0.93;0.63;;;24.00;54.90;;;;;;6242763;28;20028;-68
2021/08/26 03:27:41;;;;;;;0.57;0.47;;;24.00;54.80;;;;;;6243941;28;20096;-69
2021/08/26 03:30:42;;;;;;;0.88;0.47;;;24.00;54.80;;;;;;6244254;28;20590;-68
2021/08/26 03:33:42;;;;;;;0.95;0.55;;;24.10;54.90;;;;;;6243806;28;20395;-68
2021/08/26 03:36:43;;;;;;;0.47;0.47;;;24.00;54.80;;;;;;6243739;28;20036;-68
2021/08/26 03:39:43;;;;;;;0.68;0.40;;;24.00;54.80;;;;;;6243614;28;20395;-68
2021/08/26 03:42:44;;;;;;;1.38;0.40;;;24.00;54.80;;;;;;6243255;28;20056;-68
2021/08/26 03:45:45;;;;;;;0.40;0.32;;;24.00;54.80;;;;;;6242927;28;20033;-69
2021/08/26 03:48:45;;;;;;;0.85;0.40;;;24.00;54.80;;;;;;6243307;28;20033;-67
2021/08/26 03:51:46;;;;;;;0.75;0.50;;;24.00;54.80;;;;;;6242232;28;20237;-69
2021/08/26 03:54:47;;;;;;;3.92;0.47;;;24.00;54.80;;;;;;6243396;28;20030;-68
2021/08/26 03:57:47;;;;;;;0.52;0.40;;;24.00;54.80;;;;;;6242600;28;20041;-69
2021/08/26 04:00:48;;;;;;;0.52;0.38;;;24.00;54.80;;;;;;6243109;28;20057;-68
2021/08/26 04:03:48;;;;;;;1.05;0.57;;;24.00;54.80;;;;;;6241786;28;20017;-68
2021/08/26 04:06:49;;;;;;;0.47;0.40;;;24.00;54.80;;;;;;6241576;28;20021;-69
2021/08/26 04:09:49;;;;;;;1.63;0.40;;;24.00;54.80;;;;;;6242882;28;20021;-69
2021/08/26 04:12:50;;;;;;;0.55;0.50;;;24.00;54.80;;;;;;6241805;28;20025;-69
2021/08/26 04:15:50;;;;;;;0.28;0.28;;;24.00;54.80;;;;;;6221509;28;20026;-69
2021/08/26 04:18:51;;;;;;;0.50;0.50;;;24.00;54.80;;;;;;6224554;28;20057;-68
2021/08/26 04:21:51;;;;;;;0.65;0.60;;;24.00;54.80;;;;;;6217123;28;20141;-69
2021/08/26 04:24:52;;;;;;;0.63;0.50;;;24.00;54.80;;;;;;6240113;28;20375;-68
2021/08/26 04:27:52;;;;;;;0.80;0.60;;;24.00;54.90;;;;;;6242725;28;20482;-68
2021/08/26 04:30:53;;;;;;;0.40;0.40;;;24.00;54.90;;;;;;6242891;28;20049;-69
2021/08/26 04:33:53;;;;;;;0.50;0.40;;;24.00;54.80;;;;;;6242704;28;20432;-68
2021/08/26 04:36:54;;;;;;;0.88;0.30;;;24.00;54.90;;;;;;6242582;28;20033;-69
2021/08/26 04:39:55;;;;;;;1.10;0.60;;;24.00;54.90;;;;;;6242528;28;20029;-68
2021/08/26 04:42:55;;;;;;;0.50;0.40;;;24.00;54.80;;;;;;6241906;28;20097;-69
2021/08/26 04:45:56;;;;;;;0.73;0.50;;;24.00;54.90;;;;;;6242529;28;20033;-68
2021/08/26 04:48:56;;;;;;;1.02;0.40;;;24.00;54.90;;;;;;6241739;28;20418;-67
2021/08/26 04:51:57;;;;;;;2.67;0.60;;;24.00;54.90;;;;;;6242849;28;20037;-69
2021/08/26 04:54:57;;;;;;;0.85;0.30;;;24.00;54.90;;;;;;6241669;28;20441;-69
2021/08/26 04:57:58;;;;;;;0.95;0.50;;;24.00;54.90;;;;;;6241901;28;20418;-68
2021/08/26 05:00:58;;;;;;;0.70;0.35;;;24.00;54.90;;;;;;6237822;28;20333;-69
2021/08/26 05:04:00;;;;;;;0.40;0.30;;;24.00;54.90;;;;;;6227952;28;20082;-69
2021/08/26 05:07:02;;;;;;;0.70;0.50;;;24.00;54.90;;;;;;6242287;28;20204;-69
2021/08/26 05:10:04;;;;;;;0.73;0.40;;;24.00;54.90;;;;;;6239883;28;20433;-70
2021/08/26 05:13:07;;;;;;;1.10;0.50;;;24.00;55.00;;;;;;6226521;28;20084;-70
2021/08/26 05:16:08;;;;;;;0.57;0.40;;;24.00;55.30;;;;;;6240155;28;20548;-72
2021/08/26 05:19:08;;;;;;;4.05;0.77;;;24.00;55.40;;;;;;6237763;28;20033;-70
2021/08/26 05:22:09;;;;;;;6.38;0.52;;;24.00;55.50;;;;;;6239780;28;20119;-70
2021/08/26 05:25:09;;;;;;;0.60;0.45;;;24.00;55.50;;;;;;6240447;28;20026;-70
2021/08/26 05:28:10;;;;;;;0.60;0.50;;;24.00;55.50;;;;;;6238031;28;20084;-71
2021/08/26 05:31:11;;;;;;;1.05;0.50;;;24.00;55.50;;;;;;6238219;28;20029;-70
2021/08/26 05:34:11;;;;;;;0.82;0.35;;;24.00;55.40;;;;;;6239193;28;20473;-69
2021/08/26 05:37:12;;;;;;;4.38;0.70;;;24.00;55.40;;;;;;6240112;28;20116;-70
2021/08/26 05:40:12;;;;;;;7.53;0.65;;;24.00;55.50;;;;;;6240618;28;20021;-71
2021/08/26 05:43:13;;;;;;;8.13;0.63;;;24.00;55.70;;;;;;6238371;28;20030;-73
2021/08/26 05:46:13;;;;;;;1.35;0.80;;;24.00;55.80;;;;;;6237615;28;20132;-74
2021/08/26 05:49:14;;;;;;;8.85;1.38;;;24.00;55.70;;;;;;6237844;28;20018;-73
2021/08/26 05:52:14;;;;;;;3.70;1.33;;;24.00;55.30;;;;;;6237813;28;20054;-73
2021/08/26 05:55:18;;;;;;;10.00;1.80;;;24.00;55.30;;;;;;6238981;28;20087;-72
2021/08/26 05:58:19;;;;;;;6.10;1.63;;;24.00;55.20;;;;;;6241153;28;20049;-72
2021/08/26 06:01:21;;;;;;;11.63;1.83;;;24.00;55.20;;;;;;6234538;28;20076;-73
2021/08/26 06:04:21;;;;;;;6.40;1.67;;;24.00;55.30;;;;;;6234488;28;20333;-73
2021/08/26 06:07:22;;;;;;;6.30;1.77;;;24.00;55.30;;;;;;6218578;28;20546;-73
2021/08/26 06:10:22;;;;;;;5.53;1.42;;;24.00;55.30;;;;;;6242110;28;20553;-73
2021/08/26 06:13:23;;;;;;;6.07;2.00;;;24.00;55.30;;;;;;6240334;28;20033;-73
2021/08/26 06:16:23;;;;;;;5.43;1.85;;;24.00;55.30;;;;;;6240725;28;20033;-72
2021/08/26 06:19:24;;;;;;;10.63;2.10;;;24.00;55.30;;;;;;6243431;28;20030;-73
2021/08/26 06:22:24;;;;;;;5.45;1.42;;;24.00;55.20;;;;;;6246335;28;20022;-72
2021/08/26 06:25:25;;;;;;;5.60;1.70;;;24.00;55.30;;;;;;6247329;28;20013;-71
2021/08/26 06:28:26;;;;;;;3.80;1.60;;;24.00;55.30;;;;;;6247527;28;20512;-70
2021/08/26 06:31:26;;;;;;;3.38;1.40;;;24.00;55.30;;;;;;6247303;28;20022;-72
2021/08/26 06:34:27;;;;;;;6.55;1.70;;;24.00;55.30;;;;;;6248358;28;20526;-72
2021/08/26 06:37:28;;;;;;;5.75;1.35;;;24.00;55.30;;;;;;6246882;28;20026;-73
2021/08/26 06:40:28;;;;;;;4.07;1.33;;;24.00;55.30;;;;;;6248235;28;20022;-72
2021/08/26 06:43:29;;;;;;;3.03;1.60;;;24.00;55.30;;;;;;6247746;28;20022;-72
2021/08/26 06:46:30;;;;;;;5.20;1.45;;;24.00;55.30;;;;;;6248599;28;20037;-72
2021/08/26 06:49:31;;;;;;;9.40;1.95;;;24.00;55.20;;;;;;6246632;28;20029;-71
2021/08/26 06:52:32;;;;;;;3.40;1.60;;;24.00;55.30;;;;;;6246455;28;20029;-72
2021/08/26 06:55:33;;;;;;;2.78;1.42;;;24.00;55.30;;;;;;6248298;28;20032;-72
2021/08/26 06:58:33;;;;;;;4.80;1.52;;;24.00;55.20;;;;;;6247978;28;20037;-72
2021/08/26 07:01:34;;;;;;;2.63;1.25;;;24.00;55.20;;;;;;6247834;28;20093;-72
2021/08/26 07:04:34;;;;;;;4.15;1.50;;;24.00;55.20;;;;;;6247258;28;20069;-72
2021/08/26 07:07:36;;;;;;;3.28;1.40;;;24.00;55.30;;;;;;6246599;28;20029;-72
2021/08/26 07:10:36;;;;;;;3.40;1.48;;;24.00;55.20;;;;;;6246305;28;20021;-72
2021/08/26 07:13:37;;;;;;;3.53;1.50;;;24.00;55.20;;;;;;6243610;28;20581;-72
2021/08/26 07:16:37;;;;;;;2.45;1.27;;;24.00;55.20;;;;;;6227755;28;20025;-72
2021/08/26 07:19:38;;;;;;;2.95;1.55;;;24.00;55.20;;;;;;6247667;28;20040;-72
2021/08/26 07:22:38;;;;;;;4.88;1.70;;;24.00;55.20;;;;;;6247042;28;20025;-72
2021/08/26 07:25:39;;;;;;;4.00;1.45;;;24.00;55.10;;;;;;6245870;28;20061;-72
2021/08/26 07:28:40;;;;;;;3.30;1.55;;;24.00;55.10;;;;;;6247111;28;20029;-72
2021/08/26 07:31:40;;;;;;;4.47;1.50;;;24.00;55.20;;;;;;6245190;28;20398;-71
2021/08/26 07:34:41;;;;;;;4.25;1.92;;;24.00;55.20;;;;;;6247023;28;20423;-72
2021/08/26 07:37:41;;;;;;;4.63;1.92;;;24.00;55.20;;;;;;6246882;28;20029;-72
2021/08/26 07:40:42;;;;;;;2.22;1.02;;;24.00;55.20;;;;;;6245247;28;20419;-72
2021/08/26 07:43:42;;;;;;;4.18;1.27;;;24.00;55.20;;;;;;6245293;28;20029;-72
2021/08/26 07:46:43;;;;;;;2.17;1.10;;;24.00;55.10;;;;;;6245271;28;20037;-72
2021/08/26 07:49:43;;;;;;;3.30;1.42;;;24.00;55.20;;;;;;6245226;28;20018;-72
2021/08/26 07:52:44;;;;;;;2.88;1.50;;;24.00;55.20;;;;;;6246622;28;20022;-72
2021/08/26 07:55:44;;;;;;;2.40;1.20;;;24.00;55.10;;;;;;6246470;28;20025;-72
2021/08/26 07:58:45;;;;;;;2.25;1.20;;;24.00;55.20;;;;;;6244538;28;20438;-71
2021/08/26 08:01:45;;;;;;;3.13;1.10;;;24.00;55.20;;;;;;6245186;28;20406;-71
2021/08/26 08:04:46;;;;;;;3.65;1.30;;;24.00;55.20;;;;;;6245972;28;20121;-71
2021/08/26 08:07:46;;;;;;;3.38;1.23;;;24.00;55.20;;;;;;6246057;28;20348;-71
2021/08/26 08:10:47;;;;;;;2.38;1.25;;;24.00;55.20;;;;;;6244750;28;20017;-71
2021/08/26 08:13:48;;;;;;;2.72;1.20;;;24.00;55.20;;;;;;6245510;28;20036;-71
2021/08/26 08:16:49;;;;;;;1.52;0.80;;;24.00;55.10;;;;;;6244558;28;20026;-71
2021/08/26 08:19:49;;;;;;;5.00;1.40;;;24.00;55.10;;;;;;6245731;28;20593;-71
2021/08/26 08:22:50;;;;;;;2.67;1.20;;;24.00;55.10;;;;;;6245405;28;20022;-71
2021/08/26 08:25:51;;;;;;;3.20;1.27;;;24.00;55.10;;;;;;6245627;28;20029;-71
2021/08/26 08:28:51;;;;;;;1.95;1.10;;;24.00;55.10;;;;;;6235931;28;20032;-71
2021/08/26 08:31:52;;;;;;;3.97;1.20;;;24.00;55.10;;;;;;6236013;28;20121;-71
2021/08/26 08:34:52;;;;;;;3.90;1.42;;;24.00;55.10;;;;;;6240103;28;20022;-71
2021/08/26 08:37:53;;;;;;;2.42;1.00;;;24.00;55.10;;;;;;6245359;28;20029;-71
2021/08/26 08:40:54;;;;;;;2.45;1.35;;;24.00;55.10;;;;;;6243927;28;20017;-71
2021/08/26 08:43:57;;;;;;;2.80;1.33;;;24.00;55.00;;;;;;6243798;28;20033;-71
2021/08/26 08:46:58;;;;;;;3.88;1.25;;;24.00;55.10;;;;;;6243649;28;20502;-71
2021/08/26 08:50:00;;;;;;;3.70;1.13;;;24.00;55.10;;;;;;6235494;28;20053;-72
2021/08/26 08:53:01;;;;;;;2.15;1.02;;;24.00;55.00;;;;;;6236847;28;20030;-72
2021/08/26 08:56:04;;;;;;;1.88;0.90;;;24.00;55.10;;;;;;6245023;28;20494;-72
2021/08/26 08:59:05;;;;;;;2.60;1.10;;;24.00;55.20;;;;;;6245269;28;20098;-71
2021/08/26 09:02:05;;;;;;;1.73;0.90;;;24.00;55.00;;;;;;6244655;28;20112;-72
2021/08/26 09:05:06;;;;;;;2.10;1.00;;;24.00;55.00;;;;;;6243081;28;20509;-71
2021/08/26 09:08:09;;;;;;;2.78;1.20;;;24.00;55.00;;;;;;6244544;28;20517;-72
2021/08/26 09:11:20;;;;;;;2.00;0.90;;;24.00;55.10;;;;;;6244790;28;20084;-72
2021/08/26 09:14:26;;;;;;;1.40;1.00;;;24.00;55.10;;;;;;6235848;28;20038;-71
2021/08/26 09:17:26;;;;;;;2.08;0.95;;;24.00;55.10;;;;;;6219051;28;20026;-71
2021/08/26 09:20:27;;;;;;;2.90;1.05;;;24.00;55.20;;;;;;6235331;28;20113;-71
2021/08/26 09:23:33;;;;;;;1.77;1.00;;;24.00;55.10;;;;;;6243751;28;20025;-71
2021/08/26 09:26:33;;;;;;;1.00;0.80;;;24.00;55.10;;;;;;6242999;28;20116;-71
2021/08/26 09:30:06;;;;;;;2.28;1.00;;;24.00;55.10;;;;;;6243084;28;20086;-71
2021/08/26 09:33:09;;;;;;;1.80;0.93;;;24.00;55.10;;;;;;6244683;28;20525;-72
2021/08/26 09:36:39;;;;;;;1.63;0.90;;;24.00;55.10;;;;;;6234610;28;20658;-71
2021/08/26 09:39:40;;;;;;;1.45;1.00;;;24.00;55.10;;;;;;6232065;28;20040;-71
2021/08/26 09:42:41;;;;;;;2.50;0.85;;;24.00;55.10;;;;;;6242828;28;20033;-72
2021/08/26 09:45:48;;;;;;;1.90;0.82;;;24.00;55.10;;;;;;6243924;28;20018;-71
2021/08/26 09:49:07;;;;;;;1.92;0.90;;;24.00;55.20;;;;;;6243894;28;20029;-71
2021/08/26 09:52:16;;;;;;;1.63;0.93;;;24.00;55.10;;;;;;6219328;28;20018;-71
2021/08/26 09:55:16;;;;;;;2.35;1.33;;;24.00;55.20;;;;;;6241925;28;20025;-71
2021/08/26 09:58:19;;;;;;;3.03;0.90;;;24.00;55.20;;;;;;6243126;28;20081;-72
2021/08/26 10:01:21;;;;;;;1.38;0.70;;;24.00;55.10;;;;;;6242518;28;20076;-71
2021/08/26 10:04:29;;;;;;;0.95;0.70;;;24.00;55.10;;;;;;6243731;28;20048;-71
2021/08/26 10:07:29;;;;;;;0.98;0.70;;;24.00;55.10;;;;;;6243527;28;20033;-71
2021/08/26 10:10:32;;;;;;;1.50;0.82;;;24.00;55.10;;;;;;6242157;28;20033;-71
2021/08/26 10:13:34;;;;;;;1.55;0.80;;;24.00;55.10;;;;;;6242832;28;20021;-72
2021/08/26 10:16:37;;;;;;;1.38;0.70;;;24.00;55.10;;;;;;6243708;28;20506;-72
2021/08/26 10:19:39;;;;;;;1.60;0.88;;;24.00;55.20;;;;;;6243990;28;20030;-71
2021/08/26 10:22:40;;;;;;;1.25;0.82;;;24.00;55.10;;;;;;6243496;28;20053;-71
2021/08/26 10:25:44;;;;;;;1.60;0.93;;;24.00;55.10;;;;;;6243631;28;20029;-71
2021/08/26 10:28:46;;;;;;;1.83;1.00;;;24.00;55.10;;;;;;6241879;28;20112;-72
2021/08/26 10:32:03;;;;;;;1.10;0.68;;;24.00;55.10;;;;;;6243596;28;20022;-71
2021/08/26 10:35:10;;;;;;;2.08;0.95;;;24.00;55.10;;;;;;6243647;28;20033;-71
2021/08/26 10:38:35;;;;;;;2.28;1.20;;;24.00;55.10;;;;;;6242024;28;20038;-71
2021/08/26 10:41:35;;;;;;;1.42;0.70;;;24.00;55.20;;;;;;6243107;28;20030;-72
2021/08/26 10:44:59;;;;;;;1.42;0.80;;;24.00;55.20;;;;;;6243393;28;20056;-71
2021/08/26 10:48:01;;;;;;;0.80;0.60;;;24.00;55.20;;;;;;6243225;28;20026;-71
2021/08/26 10:51:14;;;;;;;0.75;0.55;;;24.00;55.20;;;;;;6243212;28;20088;-71
2021/08/26 10:54:35;;;;;;;1.83;0.88;;;24.00;55.30;;;;;;6242131;28;20030;-71
2021/08/26 10:57:35;;;;;;;0.77;0.50;;;24.00;55.20;;;;;;6241150;28;20037;-71
2021/08/26 11:00:43;;;;;;;0.55;0.55;;;24.00;55.20;;;;;;6242801;28;20025;-72
2021/08/26 11:03:47;;;;;;;1.52;0.55;;;24.00;55.30;;;;;;6242212;28;20471;-71
2021/08/26 11:06:48;;;;;;;1.33;0.77;;;24.00;55.30;;;;;;6242748;28;20022;-71
2021/08/26 11:09:48;;;;;;;1.27;0.90;;;24.00;55.20;;;;;;6247647;28;20018;-71
2021/08/26 11:12:49;;;;;;;0.85;0.77;;;24.00;55.20;;;;;;6247239;28;20052;-71
2021/08/26 11:15:50;;;;;;;1.30;0.65;;;24.00;55.20;;;;;;6225775;28;20459;-71
2021/08/26 11:19:12;;;;;;;1.20;0.70;;;24.00;55.20;;;;;;6246159;28;20033;-71
2021/08/26 11:22:14;;;;;;;1.00;0.73;;;24.00;55.10;;;;;;6245953;28;20120;-71
2021/08/26 11:25:25;;;;;;;1.05;0.70;;;24.00;55.20;;;;;;6247400;28;20025;-71
2021/08/26 11:28:30;;;;;;;0.88;0.57;;;24.00;55.10;;;;;;6245815;28;20025;-74
2021/08/26 11:31:31;;;;;;;1.25;0.70;;;24.00;55.20;;;;;;6245510;28;20064;-75
2021/08/26 11:34:59;;;;;;;1.30;0.68;;;24.00;55.20;;;;;;6247322;28;20025;-74
2021/08/26 11:38:00;;;;;;;0.75;0.50;;;24.00;55.20;;;;;;6245456;28;20038;-74
2021/08/26 11:41:04;;;;;;;2.55;0.60;;;24.00;55.20;;;;;;6246892;28;20129;-73
2021/08/26 11:44:13;;;;;;;0.85;0.57;;;24.00;55.10;;;;;;6245297;28;20029;-75
2021/08/26 11:47:30;;;;;;;0.88;0.60;;;24.00;55.20;;;;;;6247128;28;20025;-74
2021/08/26 11:50:39;;;;;;;0.80;0.45;;;24.00;55.20;;;;;;6247076;28;20061;-73
2021/08/26 11:53:39;;;;;;;0.40;0.40;;;24.00;55.20;;;;;;6245373;28;20025;-74
2021/08/26 11:56:45;;;;;;;0.60;0.55;;;24.00;55.20;;;;;;6245264;28;20049;-74
2021/08/26 11:59:46;;;;;;;1.17;0.70;;;24.00;55.20;;;;;;6245473;28;20047;-74
2021/08/26 12:02:57;;;;;;;0.80;0.60;;;24.00;55.20;;;;;;6246376;28;20038;-74
2021/08/26 12:05:58;;;;;;;0.88;0.57;;;24.00;55.20;;;;;;6245068;28;20021;-75
2021/08/26 12:08:59;;;;;;;0.98;0.52;;;24.00;55.30;;;;;;6245645;28;20071;-74
2021/08/26 12:12:13;;;;;;;0.52;0.47;;;24.00;55.20;;;;;;6246207;28;20233;-74
2021/08/26 12:15:23;;;;;;;1.35;0.57;;;24.00;55.20;;;;;;6235967;28;20024;-74
2021/08/26 12:18:26;;;;;;;0.45;0.40;;;24.00;55.10;;;;;;6243508;28;20025;-74
2021/08/26 12:21:27;;;;;;;0.70;0.47;;;24.00;55.20;;;;;;6245968;28;20021;-74
2021/08/26 12:24:28;;;;;;;0.82;0.60;;;24.00;55.20;;;;;;6246049;28;20036;-74
2021/08/26 12:27:30;;;;;;;0.65;0.50;;;24.00;55.20;;;;;;6245437;28;20075;-75
2021/08/26 12:30:38;;;;;;;0.75;0.50;;;24.00;55.20;;;;;;6244612;28;20026;-74
2021/08/26 12:34:08;;;;;;;0.57;0.40;;;24.00;55.10;;;;;;6244133;28;20029;-74
2021/08/26 12:37:09;;;;;;;0.85;0.50;;;24.00;55.10;;;;;;6245744;28;20021;-74
2021/08/26 12:40:10;;;;;;;1.10;0.50;;;24.00;55.10;;;;;;6244345;28;20045;-74
2021/08/26 12:43:11;;;;;;;0.40;0.40;;;24.00;55.20;;;;;;6245436;28;20061;-74
2021/08/26 12:46:16;;;;;;;0.82;0.50;;;24.00;55.20;;;;;;6244245;28;20394;-74
2021/08/26 12:49:17;;;;;;;0.60;0.45;;;24.00;55.10;;;;;;6243915;28;20028;-74
2021/08/26 12:52:35;;;;;;;0.77;0.40;;;24.00;55.00;;;;;;6245282;28;20029;-72
2021/08/26 12:55:35;;;;;;;1.17;0.52;;;24.00;55.10;;;;;;6244308;28;20032;-74
2021/08/26 12:58:36;;;;;;;0.93;0.50;;;24.00;55.10;;;;;;6243734;28;20037;-72
2021/08/26 13:01:39;;;;;;;0.70;0.50;;;24.00;55.00;;;;;;6245414;28;20108;-75
2021/08/26 13:04:40;;;;;;;1.65;0.60;;;24.00;55.10;;;;;;6244840;28;20034;-71
2021/08/26 13:07:41;;;;;;;1.27;0.40;;;24.00;55.10;;;;;;6244975;28;20168;-71
2021/08/26 13:10:43;;;;;;;0.38;0.30;;;24.00;55.10;;;;;;6235654;28;20029;-71
2021/08/26 13:13:52;;;;;;;0.63;0.40;;;24.00;55.10;;;;;;6220554;28;20022;-71
2021/08/26 13:16:53;;;;;;;0.50;0.40;;;24.00;55.10;;;;;;6219323;28;20034;-71
2021/08/26 13:19:56;;;;;;;0.63;0.40;;;24.00;55.10;;;;;;6228678;28;20048;-71
2021/08/26 13:22:57;;;;;;;0.32;0.32;;;24.00;55.00;;;;;;6244747;28;20052;-71
2021/08/26 13:25:58;;;;;;;0.30;0.30;;;24.00;55.00;;;;;;6243639;28;20466;-71
2021/08/26 13:28:59;;;;;;;0.70;0.52;;;24.00;55.00;;;;;;6243042;28;20060;-71
2021/08/26 13:31:59;;;;;;;0.75;0.40;;;24.00;54.90;;;;;;6243605;28;20025;-71
2021/08/26 13:35:07;;;;;;;0.75;0.60;;;24.00;55.00;;;;;;6243371;28;20021;-71
2021/08/26 13:38:08;;;;;;;0.47;0.40;;;24.00;55.00;;;;;;6242952;28;20105;-71
2021/08/26 13:41:08;;;;;;;0.50;0.50;;;24.00;55.00;;;;;;6244489;28;20034;-71
2021/08/26 13:44:09;;;;;;;0.77;0.40;;;24.00;55.00;;;;;;6242760;28;20486;-71
2021/08/26 13:47:09;;;;;;;0.60;0.32;;;24.00;55.00;;;;;;6244248;28;20053;-71
2021/08/26 13:50:10;;;;;;;0.93;0.40;;;24.00;55.00;;;;;;6242373;28;20026;-71
2021/08/26 13:53:12;;;;;;;0.60;0.40;;;24.00;55.00;;;;;;6242742;28;20060;-71
2021/08/26 13:56:14;;;;;;;0.73;0.38;;;24.00;55.00;;;;;;6242720;28;20049;-71
2021/08/26 13:59:15;;;;;;;1.08;0.47;;;24.00;55.00;;;;;;6244073;28;20370;-71
2021/08/26 14:02:16;;;;;;;0.50;0.50;;;24.00;55.10;;;;;;6242331;28;20435;-71
2021/08/26 14:05:16;;;;;;;1.23;0.50;;;24.00;55.10;;;;;;6243605;28;20517;-71
2021/08/26 14:08:17;;;;;;;0.60;0.30;;;24.00;55.10;;;;;;6242418;28;20029;-71
2021/08/26 14:11:18;;;;;;;0.63;0.38;;;24.00;55.10;;;;;;6243838;28;20034;-71
2021/08/26 14:14:19;;;;;;;0.88;0.20;;;24.00;55.20;;;;;;6233343;28;20092;-71
2021/08/26 14:17:20;;;;;;;1.02;0.32;;;24.00;55.20;;;;;;6239018;28;20026;-71
2021/08/26 14:20:20;;;;;;;0.75;0.40;;;24.00;55.20;;;;;;6243300;28;20059;-71
2021/08/26 14:23:21;;;;;;;0.52;0.38;;;24.00;55.90;;;;;;6234614;28;20034;-71
2021/08/26 14:26:22;;;;;;;0.88;0.40;;;24.00;55.20;;;;;;6244987;28;20040;-71
2021/08/26 14:29:22;;;;;;;0.52;0.40;;;24.00;55.20;;;;;;6242001;28;20152;-71
2021/08/26 14:32:23;;;;;;;0.63;0.43;;;24.00;55.20;;;;;;6233858;28;20040;-71
2021/08/26 14:35:23;;;;;;;0.20;0.20;;;24.00;55.20;;;;;;6221036;28;20033;-71
2021/08/26 14:38:25;;;;;;;0.30;0.30;;;24.00;55.20;;;;;;6243539;28;20028;-71
2021/08/26 14:41:25;;;;;;;0.50;0.40;;;24.00;55.20;;;;;;6243086;28;20025;-71
2021/08/26 14:44:26;;;;;;;0.30;0.20;;;24.00;55.20;;;;;;6248247;28;20143;-71
2021/08/26 14:47:26;;;;;;;0.40;0.30;;;24.00;55.20;;;;;;6238766;28;20097;-71
2021/08/26 14:50:27;;;;;;;0.50;0.30;;;24.00;55.20;;;;;;6223230;28;20084;-72
2021/08/26 14:53:28;;;;;;;0.20;0.20;;;24.00;55.20;;;;;;6247604;28;20072;-72
2021/08/26 14:56:29;;;;;;;0.20;0.20;;;24.00;55.20;;;;;;6246225;28;20048;-72
2021/08/26 14:59:30;;;;;;;0.30;0.30;;;24.00;55.20;;;;;;6248099;28;20032;-72
2021/08/26 15:02:30;;;;;;;0.50;0.40;;;24.00;55.20;;;;;;6247936;28;20072;-72
2021/08/26 15:05:31;;;;;;;0.28;0.22;;;24.00;55.20;;;;;;6246561;28;20072;-72
2021/08/26 15:08:31;;;;;;;0.30;0.30;;;24.00;55.20;;;;;;6247237;28;20110;-72
2021/08/26 15:11:33;;;;;;;0.35;0.30;;;24.00;55.20;;;;;;6246342;28;20021;-72
2021/08/26 15:14:33;;;;;;;0.32;0.30;;;24.00;55.20;;;;;;6237960;28;20505;-72
2021/08/26 15:17:34;;;;;;;0.55;0.20;;;24.00;55.30;;;;;;6230694;28;20049;-72
2021/08/26 15:20:35;;;;;;;0.60;0.30;;;24.00;55.30;;;;;;6238118;28;20438;-71
2021/08/26 15:23:35;;;;;;;0.20;0.20;;;24.00;55.30;;;;;;6254843;28;20026;-71
2021/08/26 15:26:36;;;;;;;0.20;0.20;;;24.00;55.30;;;;;;6245807;28;20371;-71
2021/08/26 15:29:38;;;;;;;0.40;0.30;;;24.00;55.30;;;;;;6247462;28;20479;-71
2021/08/26 15:32:39;;;;;;;0.63;0.40;;;24.00;55.30;;;;;;6245574;28;20036;-71
2021/08/26 15:35:40;;;;;;;0.38;0.30;;;24.00;55.30;;;;;;6247360;28;20421;-71
2021/08/26 15:38:40;;;;;;;0.22;0.22;;;24.00;55.90;;;;;;6246588;28;20040;-71
2021/08/26 15:41:45;;;;;;;0.30;0.30;;;24.00;55.30;;;;;;6245631;28;20033;-71
2021/08/26 15:44:46;;;;;;;;;;;24.00;55.30;;;;;;6247176;28;20075;-71
2021/08/26 15:47:47;;;;;;;0.20;0.20;;;24.00;55.30;;;;;;6245507;28;20366;-72
2021/08/26 15:50:48;;;;;;;0.50;0.40;;;24.00;55.30;;;;;;6246810;28;20029;-71
2021/08/26 15:53:57;;;;;;;0.20;0.20;;;24.00;55.30;;;;;;6245387;28;20026;-71